KLM747 EGKK-EDDH
Flight info
| Callsign | KLM747 |
|---|---|
| Flight time | 2h 5m |
| Altitude | 37000 |
| Route | FRANE M604 PAAVO Q295 SOMVA DCT MAVAS DCT TULIP Y12 SPY N873 ANDIK M105 RIBSO RIBSO3P |
| Aircraft | A20N/M-SDE2E3FGHIRWXY/LB1 |
Departure
| Time | 2026-04-24 16:49 |
|---|---|
| Airport | London Gatwick Airport (EGKK) |
Arrival
| Time | 2026-04-24 18:54 |
|---|---|
| Airport | Hamburg Helmut Schmidt Airport (EDDH) |
| Time | Latitude | Longitude | Altitude | Speed | Heading |
|---|---|---|---|---|---|
| 2026-04-24 16:31 | 51.15341 | -0.19523 | 210 ft | 0 kts | 78° |
| 2026-04-24 16:40 | 51.15340 | -0.19529 | 204 ft | 1 kts | 80° |
| 2026-04-24 16:40 | 51.15338 | -0.19545 | 211 ft | 1 kts | 87° |
| 2026-04-24 16:40 | 51.15338 | -0.19561 | 204 ft | 1 kts | 94° |
| 2026-04-24 16:41 | 51.15339 | -0.19576 | 204 ft | 1 kts | 100° |
| 2026-04-24 16:41 | 51.15341 | -0.19592 | 207 ft | 1 kts | 107° |
| 2026-04-24 16:41 | 51.15344 | -0.19607 | 207 ft | 1 kts | 113° |
| 2026-04-24 16:41 | 51.15348 | -0.19621 | 212 ft | 1 kts | 120° |
| 2026-04-24 16:42 | 51.15353 | -0.19635 | 211 ft | 1 kts | 126° |
| 2026-04-24 16:42 | 51.15354 | -0.19637 | 210 ft | 0 kts | 127° |
| 2026-04-24 16:43 | 51.15353 | -0.19636 | 211 ft | 0 kts | 137° |
| 2026-04-24 16:43 | 51.15346 | -0.19637 | 210 ft | 4 kts | 173° |
| 2026-04-24 16:44 | 51.15283 | -0.19624 | 215 ft | 14 kts | 171° |
| 2026-04-24 16:44 | 51.15167 | -0.19595 | 204 ft | 20 kts | 171° |
| 2026-04-24 16:44 | 51.15106 | -0.19579 | 215 ft | 7 kts | 169° |
| 2026-04-24 16:44 | 51.15036 | -0.19576 | 204 ft | 11 kts | 203° |
| 2026-04-24 16:45 | 51.15000 | -0.19688 | 215 ft | 14 kts | 255° |
| 2026-04-24 16:45 | 51.14973 | -0.19875 | 204 ft | 21 kts | 257° |
| 2026-04-24 16:45 | 51.14950 | -0.20042 | 207 ft | 0 kts | 257° |
| 2026-04-24 16:45 | 51.14935 | -0.20148 | 205 ft | 19 kts | 257° |
| 2026-04-24 16:46 | 51.14899 | -0.20406 | 212 ft | 27 kts | 258° |
| 2026-04-24 16:46 | 51.14863 | -0.20682 | 202 ft | 26 kts | 258° |
| 2026-04-24 16:46 | 51.14826 | -0.20949 | 212 ft | 10 kts | 257° |
| 2026-04-24 16:46 | 51.14806 | -0.21092 | 204 ft | 17 kts | 258° |
| 2026-04-24 16:47 | 51.14773 | -0.21283 | 201 ft | 12 kts | 256° |
| 2026-04-24 16:47 | 51.14717 | -0.21402 | 204 ft | 12 kts | 186° |
| 2026-04-24 16:47 | 51.14656 | -0.21345 | 211 ft | 12 kts | 151° |
| 2026-04-24 16:47 | 51.14616 | -0.21324 | 206 ft | 0 kts | 167° |
| 2026-04-24 16:48 | 51.14603 | -0.21320 | 207 ft | 9 kts | 167° |
| 2026-04-24 16:48 | 51.14528 | -0.21235 | 212 ft | 17 kts | 118° |
| 2026-04-24 16:48 | 51.14539 | -0.21042 | 214 ft | 18 kts | 79° |
| 2026-04-24 16:49 | 51.14568 | -0.20819 | 212 ft | 31 kts | 78° |
| 2026-04-24 16:49 | 51.14688 | -0.20007 | 215 ft | 115 kts | 78° |
| 2026-04-24 16:49 | 51.14905 | -0.18467 | 211 ft | 168 kts | 79° |
| 2026-04-24 16:49 | 51.15120 | -0.16674 | 1139 ft | 161 kts | 77° |
| 2026-04-24 16:50 | 51.15287 | -0.15507 | 1865 ft | 163 kts | 77° |
| 2026-04-24 16:50 | 51.15647 | -0.13101 | 3390 ft | 172 kts | 78° |
| 2026-04-24 16:50 | 51.15920 | -0.11181 | 4595 ft | 180 kts | 78° |
| 2026-04-24 16:50 | 51.16195 | -0.09188 | 5773 ft | 188 kts | 79° |
| 2026-04-24 16:51 | 51.16474 | -0.07133 | 7016 ft | 194 kts | 79° |
| 2026-04-24 16:51 | 51.16766 | -0.04998 | 8208 ft | 198 kts | 80° |
| 2026-04-24 16:51 | 51.16896 | -0.03544 | 9008 ft | 200 kts | 87° |
| 2026-04-24 16:51 | 51.16876 | -0.00576 | 10637 ft | 202 kts | 95° |
| 2026-04-24 16:52 | 51.16813 | 0.01650 | 11777 ft | 202 kts | 94° |
| 2026-04-24 16:52 | 51.16764 | 0.03881 | 12963 ft | 201 kts | 95° |
| 2026-04-24 16:52 | 51.16722 | 0.06118 | 14133 ft | 199 kts | 94° |
| 2026-04-24 16:52 | 51.16682 | 0.08309 | 15056 ft | 202 kts | 95° |
| 2026-04-24 16:53 | 51.16635 | 0.10596 | 15876 ft | 210 kts | 96° |
| 2026-04-24 16:53 | 51.16584 | 0.12972 | 16673 ft | 212 kts | 96° |
| 2026-04-24 16:53 | 51.16544 | 0.15343 | 16847 ft | 230 kts | 94° |
| 2026-04-24 16:53 | 51.16498 | 0.18089 | 16732 ft | 256 kts | 95° |
| 2026-04-24 16:54 | 51.16477 | 0.20870 | 17678 ft | 248 kts | 92° |
| 2026-04-24 16:54 | 51.16509 | 0.23542 | 18960 ft | 234 kts | 92° |
| 2026-04-24 16:54 | 51.16543 | 0.26131 | 19849 ft | 234 kts | 91° |
| 2026-04-24 16:54 | 51.16570 | 0.28812 | 20340 ft | 255 kts | 91° |
| 2026-04-24 16:55 | 51.16546 | 0.31707 | 20912 ft | 269 kts | 89° |
| 2026-04-24 16:55 | 51.16594 | 0.34786 | 21535 ft | 277 kts | 87° |
| 2026-04-24 16:55 | 51.16650 | 0.37836 | 22330 ft | 285 kts | 88° |
| 2026-04-24 16:55 | 51.16689 | 0.41153 | 22603 ft | 312 kts | 89° |
| 2026-04-24 16:56 | 51.16708 | 0.44730 | 22849 ft | 338 kts | 89° |
| 2026-04-24 16:56 | 51.16732 | 0.48635 | 23105 ft | 364 kts | 84° |
| 2026-04-24 16:56 | 51.17401 | 0.52640 | 23388 ft | 384 kts | 60° |
| 2026-04-24 16:56 | 51.18967 | 0.56070 | 24106 ft | 382 kts | 40° |
| 2026-04-24 16:57 | 51.21062 | 0.58334 | 25447 ft | 354 kts | 19° |
| 2026-04-24 16:57 | 51.23344 | 0.59265 | 26893 ft | 322 kts | 359° |
| 2026-04-24 16:57 | 51.25508 | 0.59350 | 28305 ft | 298 kts | 354° |
| 2026-04-24 16:57 | 51.27489 | 0.59412 | 29640 ft | 277 kts | 357° |
| 2026-04-24 16:58 | 51.29347 | 0.59684 | 30764 ft | 260 kts | 1° |
| 2026-04-24 16:58 | 51.30532 | 0.59960 | 31166 ft | 259 kts | 2° |
| 2026-04-24 16:58 | 51.32335 | 0.60695 | 31282 ft | 283 kts | 24° |
| 2026-04-24 16:58 | 51.34154 | 0.64088 | 30954 ft | 335 kts | 68° |
| 2026-04-24 16:59 | 51.34921 | 0.67633 | 31474 ft | 331 kts | 66° |
| 2026-04-24 16:59 | 51.35586 | 0.69760 | 32139 ft | 312 kts | 50° |
| 2026-04-24 16:59 | 51.38836 | 0.73558 | 33033 ft | 298 kts | 21° |
| 2026-04-24 17:00 | 51.40820 | 0.75133 | 32239 ft | 345 kts | 22° |
| 2026-04-24 17:00 | 51.45014 | 0.78717 | 33783 ft | 327 kts | 32° |
| 2026-04-24 17:00 | 51.46738 | 0.81002 | 34498 ft | 322 kts | 40° |
| 2026-04-24 17:01 | 51.49731 | 0.86409 | 34164 ft | 327 kts | 49° |
| 2026-04-24 17:01 | 51.51136 | 0.89357 | 33580 ft | 334 kts | 50° |
| 2026-04-24 17:02 | 51.53972 | 0.95473 | 32057 ft | 354 kts | 50° |
| 2026-04-24 17:02 | 51.55479 | 0.98711 | 31247 ft | 365 kts | 50° |
| 2026-04-24 17:02 | 51.57038 | 1.02034 | 30445 ft | 376 kts | 49° |
| 2026-04-24 17:02 | 51.58635 | 1.05434 | 29387 ft | 390 kts | 49° |
| 2026-04-24 17:03 | 51.61959 | 1.12571 | 27544 ft | 406 kts | 51° |
| 2026-04-24 17:03 | 51.63650 | 1.16222 | 26999 ft | 403 kts | 51° |
| 2026-04-24 17:03 | 51.65330 | 1.19847 | 26471 ft | 400 kts | 51° |
| 2026-04-24 17:04 | 51.66978 | 1.23396 | 25955 ft | 397 kts | 51° |
| 2026-04-24 17:04 | 51.70260 | 1.30462 | 24921 ft | 392 kts | 51° |
| 2026-04-24 17:04 | 51.71906 | 1.34008 | 24146 ft | 398 kts | 51° |
| 2026-04-24 17:05 | 51.73586 | 1.37629 | 23126 ft | 407 kts | 51° |
| 2026-04-24 17:05 | 51.75296 | 1.41316 | 22153 ft | 411 kts | 52° |
| 2026-04-24 17:05 | 51.78695 | 1.48664 | 21094 ft | 407 kts | 53° |
| 2026-04-24 17:06 | 51.80391 | 1.52348 | 20703 ft | 406 kts | 53° |
| 2026-04-24 17:06 | 51.83853 | 1.59886 | 20477 ft | 419 kts | 53° |
| 2026-04-24 17:06 | 51.85562 | 1.63619 | 20342 ft | 415 kts | 53° |
| 2026-04-24 17:07 | 51.87288 | 1.67395 | 20290 ft | 416 kts | 53° |
| 2026-04-24 17:07 | 51.88991 | 1.71128 | 20287 ft | 417 kts | 53° |
| 2026-04-24 17:07 | 51.92450 | 1.78727 | 20289 ft | 417 kts | 53° |
| 2026-04-24 17:08 | 51.95873 | 1.86271 | 20287 ft | 417 kts | 53° |
| 2026-04-24 17:08 | 51.97578 | 1.90037 | 20289 ft | 417 kts | 53° |
| 2026-04-24 17:08 | 51.99306 | 1.93862 | 20289 ft | 417 kts | 53° |
| 2026-04-24 17:09 | 52.02730 | 2.01458 | 20289 ft | 418 kts | 53° |
| 2026-04-24 17:09 | 52.06133 | 2.09027 | 20290 ft | 415 kts | 53° |
| 2026-04-24 17:10 | 52.07839 | 2.12795 | 20293 ft | 415 kts | 53° |
| 2026-04-24 17:10 | 52.12942 | 2.24130 | 20292 ft | 415 kts | 53° |
| 2026-04-24 17:11 | 52.18024 | 2.35554 | 20290 ft | 415 kts | 54° |
| 2026-04-24 17:12 | 52.26466 | 2.54656 | 20292 ft | 413 kts | 54° |
| 2026-04-24 18:54 | 53.63199 | 9.99620 | 44 ft | 14 kts | 51° |
| 2026-04-24 18:55 | 53.63138 | 9.99836 | 45 ft | 13 kts | 154° |
| 2026-04-24 18:55 | 53.63055 | 9.99907 | 45 ft | 13 kts | 153° |
| 2026-04-24 18:55 | 53.62997 | 9.99957 | 45 ft | 0 kts | 153° |
| 2026-04-24 18:57 | 53.62981 | 9.99970 | 45 ft | 6 kts | 153° |
| 2026-04-24 18:58 | 53.62948 | 10.00021 | 45 ft | 8 kts | 122° |
| 2026-04-24 18:58 | 53.62954 | 10.00098 | 43 ft | 8 kts | 72° |
| 2026-04-24 18:58 | 53.62956 | 10.00131 | 45 ft | 0 kts | 97° |
| 2026-04-24 18:58 | 53.62955 | 10.00142 | 45 ft | 5 kts | 98° |
| 2026-04-24 18:59 | 53.62953 | 10.00207 | 45 ft | 3 kts | 61° |
| 2026-04-24 18:59 | 53.62958 | 10.00245 | 45 ft | 5 kts | 96° |
| 2026-04-24 18:59 | 53.62949 | 10.00276 | 45 ft | 0 kts | 123° |
| 2026-04-24 19:00 | 53.62946 | 10.00284 | 45 ft | 0 kts | 123° |